createdAt,value
2023-01-24T04:55:09.581Z,5.86
2023-01-24T04:58:13.485Z,5.78
2023-01-24T05:01:15.693Z,5.82
2023-01-24T05:04:19.302Z,5.85
2023-01-24T05:07:21.446Z,5.78
2023-01-24T05:10:25.171Z,5.79
2023-01-24T05:13:28.011Z,5.84
2023-01-24T05:16:30.599Z,5.94
2023-01-24T05:19:33.516Z,5.93
2023-01-24T05:22:36.098Z,5.88
2023-01-24T05:25:38.442Z,5.76
2023-01-24T05:28:41.058Z,5.73
2023-01-24T05:31:43.358Z,5.64
2023-01-24T05:34:46.610Z,5.59
2023-01-24T05:37:51.805Z,5.62
2023-01-24T05:40:54.676Z,5.64
2023-01-24T05:43:56.939Z,5.72
2023-01-24T05:46:59.676Z,5.75
2023-01-24T05:50:02.565Z,5.73
2023-01-24T05:53:05.086Z,5.66
2023-01-24T05:56:14.205Z,5.51
2023-01-24T05:59:17.111Z,5.67
2023-01-24T06:02:19.680Z,5.60
2023-01-24T06:05:22.507Z,5.52
2023-01-24T06:08:25.041Z,5.35
2023-01-24T06:11:28.576Z,5.21
2023-01-24T06:14:33.606Z,5.25
2023-01-24T06:17:36.048Z,5.29
2023-01-24T06:20:38.660Z,5.18
2023-01-24T06:23:41.214Z,5.08
2023-01-24T06:26:43.803Z,5.13
2023-01-24T06:29:46.551Z,5.15
2023-01-24T06:33:26.943Z,5.17
2023-01-24T06:36:45.526Z,5.26
2023-01-24T06:39:51.010Z,5.30
2023-01-24T06:42:53.968Z,5.37
2023-01-24T06:45:56.931Z,5.31
2023-01-24T06:48:59.954Z,5.43
2023-01-24T06:52:02.213Z,5.41
2023-01-24T06:55:06.037Z,5.39
2023-01-24T06:58:08.163Z,5.47
2023-01-24T07:01:10.614Z,5.58
2023-01-24T07:04:13.192Z,5.58
2023-01-24T07:07:15.671Z,5.58
2023-01-24T07:10:18.042Z,5.62
2023-01-24T07:13:20.561Z,5.67
2023-01-24T07:16:22.730Z,5.72
2023-01-24T07:19:26.539Z,5.82
2023-01-24T07:22:29.081Z,5.83
2023-01-24T07:25:32.094Z,6.10
2023-01-24T07:28:34.229Z,6.24
2023-01-24T07:31:36.718Z,6.61
2023-01-24T07:34:39.434Z,6.76
2023-01-24T07:37:41.859Z,6.82
2023-01-24T07:40:43.995Z,6.61
2023-01-24T07:43:46.524Z,6.75
2023-01-24T07:46:48.733Z,6.91
2023-01-24T07:49:51.151Z,6.89
2023-01-24T07:52:56.422Z,7.07
2023-01-24T07:56:02.917Z,7.19
2023-01-24T07:59:05.730Z,7.28
2023-01-24T08:02:11.977Z,7.04
2023-01-24T08:05:14.447Z,6.97
2023-01-24T08:08:16.675Z,7.03
2023-01-24T08:11:19.268Z,7.21
2023-01-24T08:14:22.775Z,7.28
2023-01-24T08:17:25.258Z,7.40
2023-01-24T08:20:30.152Z,7.43
2023-01-24T08:23:32.758Z,7.42
2023-01-24T08:26:34.919Z,7.37
2023-01-24T08:29:37.419Z,7.33
2023-01-24T08:32:39.987Z,7.39
2023-01-24T08:35:42.430Z,7.47
2023-01-24T08:38:44.550Z,7.38
2023-01-24T08:41:47.212Z,7.43
2023-01-24T08:44:49.355Z,7.52
2023-01-24T08:47:53.720Z,7.49
2023-01-24T08:50:56.940Z,7.37
2023-01-24T08:53:59.421Z,7.45
2023-01-24T08:57:02.087Z,7.44
2023-01-24T09:00:05.323Z,7.37
2023-01-24T09:03:07.478Z,7.37
2023-01-24T09:06:10.847Z,7.23
2023-01-24T09:09:13.014Z,7.14
2023-01-24T09:12:15.395Z,7.35
2023-01-24T09:15:17.634Z,7.31
2023-01-24T09:18:20.024Z,7.22
2023-01-24T09:21:22.682Z,7.51
2023-01-24T09:24:25.903Z,7.54
2023-01-24T09:27:27.997Z,7.63
2023-01-24T09:30:30.477Z,7.56
2023-01-24T09:33:32.662Z,7.54
2023-01-24T09:36:35.140Z,7.63
2023-01-24T09:39:37.590Z,7.79
2023-01-24T09:42:51.520Z,7.85
2023-01-24T09:46:07.205Z,8.09
2023-01-24T09:49:23.019Z,7.99
2023-01-24T09:52:32.339Z,8.19
2023-01-24T09:55:43.319Z,8.39
2023-01-24T09:58:45.949Z,8.46
2023-01-24T10:01:50.434Z,8.72
2023-01-24T10:04:53.712Z,8.62
2023-01-24T10:08:02.798Z,8.79
2023-01-24T10:11:20.219Z,8.86
2023-01-24T10:14:42.140Z,9.00
2023-01-24T10:17:59.483Z,9.17
2023-01-24T10:21:25.384Z,9.24
2023-01-24T10:24:36.950Z,9.14
2023-01-24T10:27:52.434Z,8.99
2023-01-24T10:31:16.537Z,9.00
2023-01-24T10:34:50.880Z,9.03
2023-01-24T10:37:57.865Z,9.00
2023-01-24T10:41:15.138Z,9.14
2023-01-24T10:44:29.475Z,9.14
2023-01-24T10:47:31.575Z,9.16
2023-01-24T10:50:43.519Z,9.19
2023-01-24T10:53:46.377Z,9.22
2023-01-24T10:56:49.487Z,9.03
2023-01-24T10:59:52.442Z,9.01
2023-01-24T11:02:57.418Z,9.09
2023-01-24T11:05:59.626Z,9.14
2023-01-24T11:09:17.297Z,9.08
2023-01-24T11:12:21.574Z,9.01
2023-01-24T11:15:33.474Z,9.33
2023-01-24T11:18:38.150Z,9.36
2023-01-24T11:21:53.485Z,9.37
2023-01-24T11:25:01.225Z,9.31
2023-01-24T11:28:03.768Z,9.26
2023-01-24T11:31:34.362Z,9.37
2023-01-24T11:35:03.524Z,9.50
2023-01-24T11:38:11.715Z,9.66
2023-01-24T11:41:16.761Z,9.84
2023-01-24T11:45:09.408Z,9.91
2023-01-24T11:48:22.852Z,10.00
2023-01-24T11:51:51.120Z,10.07
2023-01-24T11:55:14.345Z,10.33
2023-01-24T11:58:34.907Z,10.27
2023-01-24T12:01:53.883Z,10.26
2023-01-24T12:05:13.586Z,10.39
2023-01-24T12:08:46.930Z,10.32
2023-01-24T12:12:18.703Z,10.23
2023-01-24T12:15:29.706Z,10.42
2023-01-24T12:18:57.863Z,10.51
2023-01-24T12:22:01.394Z,10.42
2023-01-24T12:25:11.955Z,10.40
2023-01-24T12:28:24.887Z,10.22
2023-01-24T12:31:38.885Z,10.23
2023-01-24T12:35:01.363Z,10.03
2023-01-24T12:38:09.579Z,10.05
2023-01-24T12:41:36.764Z,9.99
2023-01-24T12:44:48.241Z,9.78
2023-01-24T12:48:21.751Z,9.57
2023-01-24T12:51:33.437Z,9.51
2023-01-24T12:54:45.370Z,9.57
2023-01-24T12:58:14.673Z,9.64
2023-01-24T13:01:40.705Z,9.42
2023-01-24T13:04:59.142Z,9.37
2023-01-24T13:08:19.543Z,9.40
2023-01-24T13:11:24.969Z,9.39
2023-01-24T13:14:39.020Z,9.55
2023-01-24T13:18:06.981Z,9.41
2023-01-24T13:21:17.835Z,9.19
2023-01-24T13:24:39.011Z,9.02
2023-01-24T13:27:51.292Z,8.93
2023-01-24T13:31:26.981Z,8.85
2023-01-24T13:34:36.069Z,8.84
2023-01-24T13:37:40.337Z,8.71
2023-01-24T13:40:58.627Z,8.63
2023-01-24T13:44:02.602Z,8.61
2023-01-24T13:47:23.670Z,8.62
2023-01-24T13:50:30.804Z,8.62
2023-01-24T13:53:57.977Z,8.63
2023-01-24T13:57:28.962Z,8.68
2023-01-24T14:00:31.573Z,8.66
2023-01-24T14:03:37.962Z,8.73
2023-01-24T14:06:43.640Z,8.69
2023-01-24T14:09:47.756Z,8.71
2023-01-24T14:12:55.296Z,8.87
2023-01-24T14:15:57.808Z,8.98
2023-01-24T14:19:13.174Z,8.78
2023-01-24T14:22:20.381Z,8.93
2023-01-24T14:25:35.612Z,8.88
2023-01-24T14:28:41.452Z,8.71
2023-01-24T14:31:47.919Z,8.53
2023-01-24T14:35:00.173Z,8.50
2023-01-24T14:38:18.157Z,8.46
2023-01-24T14:41:21.876Z,8.41
2023-01-24T14:44:29.701Z,8.42
2023-01-24T14:47:32.884Z,8.20
2023-01-24T14:50:37.721Z,8.17
2023-01-24T14:53:40.512Z,8.13
2023-01-24T14:56:43.095Z,8.12
2023-01-24T14:59:50.872Z,7.95
2023-01-24T15:02:58.751Z,7.93
2023-01-24T15:06:04.060Z,7.98
2023-01-24T15:09:06.250Z,7.87
2023-01-24T15:12:12.982Z,7.74
2023-01-24T15:15:19.180Z,7.67
2023-01-24T15:18:41.944Z,7.59
2023-01-24T15:21:46.971Z,7.49
2023-01-24T15:25:00.972Z,7.40
2023-01-24T15:28:12.148Z,7.32
2023-01-24T15:31:43.713Z,7.35
2023-01-24T15:34:46.976Z,7.23
2023-01-24T15:38:26.532Z,6.94
2023-01-24T15:41:50.146Z,6.88
2023-01-24T15:44:55.375Z,6.92
2023-01-24T15:48:15.608Z,6.80
2023-01-24T15:51:30.326Z,6.74
2023-01-24T15:54:33.738Z,6.57
2023-01-24T15:57:39.325Z,6.46
2023-01-24T16:00:51.258Z,6.34
2023-01-24T16:03:53.601Z,6.27
2023-01-24T16:06:55.772Z,6.24
2023-01-24T16:09:58.210Z,6.19
2023-01-24T16:13:00.400Z,6.13
2023-01-24T16:16:06.620Z,6.02
2023-01-24T16:19:20.750Z,6.02
2023-01-24T16:22:24.017Z,5.91
2023-01-24T16:25:26.198Z,5.88
2023-01-24T16:28:28.749Z,5.92
2023-01-24T16:31:31.005Z,5.67
2023-01-24T16:34:33.446Z,5.57
2023-01-24T16:37:35.723Z,5.71
2023-01-24T16:40:39.008Z,5.80
2023-01-24T16:43:44.423Z,5.64
2023-01-24T16:46:49.777Z,5.71
